Terminal Aerodrome Forecast
Issued by NWS

Home | Current Version | Previous Version | Text Only | Print | Product List | Glossary On
Versions: 1 2 3 4 5 6 7 8 9 10 11 12
000
FTUS46 KPDT 162338
TAFRDM
TAF
KRDM 162338Z 1700/1724 VRB04KT P6SM SCT150 SCT250
     FM170500 15004KT P6SM SKC
     FM171200 16006KT P6SM SCT300
     FM171800 27010KT P6SM SKC
     FM172100 31015KT P6SM SCT150=

USA.gov is the U.S. government's official web portal to all federal, state and local government web resources and services.